createdAt,value
2018-08-04T15:15:06.210Z,99.99
2018-08-04T15:16:05.956Z,99.99
2018-08-04T15:17:05.976Z,99.99
2018-08-04T15:18:06.189Z,99.99
2018-08-04T15:19:05.900Z,99.99
2018-08-04T15:20:05.929Z,99.99
2018-08-04T15:21:05.851Z,99.99
2018-08-04T15:22:05.813Z,99.99
2018-08-04T15:23:05.815Z,99.99
2018-08-04T15:24:05.810Z,99.99
2018-08-04T15:25:05.817Z,99.99
2018-08-04T15:26:05.735Z,99.99
2018-08-04T15:27:05.757Z,99.99
2018-08-04T15:28:05.701Z,99.99
2018-08-04T15:29:05.671Z,99.99
2018-08-04T15:30:05.729Z,99.99
2018-08-04T15:31:05.705Z,99.99
2018-08-04T15:32:05.600Z,99.99
2018-08-04T15:33:05.661Z,99.99
2018-08-04T15:34:05.612Z,99.99
2018-08-04T15:35:05.543Z,99.99
2018-08-04T15:36:05.537Z,99.99
2018-08-04T15:37:05.603Z,99.99
2018-08-04T15:38:05.458Z,99.99
2018-08-04T15:39:05.448Z,99.99
2018-08-04T15:40:05.897Z,99.99
2018-08-04T15:41:06.011Z,99.99
2018-08-04T15:42:05.665Z,99.99
2018-08-04T15:43:06.480Z,99.99
2018-08-04T15:44:05.338Z,99.99
2018-08-04T15:45:06.055Z,99.99
2018-08-04T15:46:05.301Z,99.99
2018-08-04T15:47:05.303Z,99.99
2018-08-04T15:48:05.688Z,99.99
2018-08-04T15:49:05.305Z,99.99
2018-08-04T15:50:05.177Z,99.99
2018-08-04T15:51:05.618Z,99.99
2018-08-04T15:52:05.614Z,99.99
2018-08-04T15:53:05.141Z,99.99
2018-08-04T15:54:05.148Z,99.99
2018-08-04T15:55:05.172Z,99.99
2018-08-04T15:56:05.100Z,99.99
2018-08-04T15:57:05.076Z,99.99
2018-08-04T15:58:05.018Z,99.99
2018-08-04T15:59:05.130Z,99.99
2018-08-04T16:00:04.963Z,99.99
2018-08-04T16:01:04.965Z,99.99
2018-08-04T16:02:05.027Z,99.99
2018-08-04T16:03:05.011Z,99.99
2018-08-04T16:04:04.929Z,99.99
2018-08-04T16:05:05.083Z,99.99
2018-08-04T16:06:04.874Z,99.99
2018-08-04T16:07:04.881Z,99.99
2018-08-04T16:08:04.786Z,99.99
2018-08-04T16:09:04.795Z,99.99
2018-08-04T16:10:04.855Z,99.99
2018-08-04T16:11:04.911Z,99.99
2018-08-04T16:12:04.847Z,99.99
2018-08-04T16:13:04.737Z,99.99
2018-08-04T16:14:04.643Z,99.99
2018-08-04T16:15:04.675Z,99.99
2018-08-04T16:16:04.677Z,99.99
2018-08-04T16:17:04.833Z,99.99
2018-08-04T16:18:04.660Z,99.99
2018-08-04T16:19:04.580Z,99.99
2018-08-04T16:20:04.524Z,99.99
2018-08-04T16:21:04.516Z,99.99
2018-08-04T16:22:04.606Z,99.99
2018-08-04T16:23:04.445Z,99.99
2018-08-04T16:24:04.439Z,99.99
2018-08-04T16:25:04.440Z,99.99
2018-08-04T16:26:04.416Z,99.99
2018-08-04T16:27:04.427Z,99.99
2018-08-04T16:28:04.382Z,99.99
2018-08-04T16:29:04.364Z,99.99
2018-08-04T16:30:04.290Z,99.99
2018-08-04T16:31:04.311Z,97.56
2018-08-04T16:32:04.386Z,99.99
2018-08-04T16:33:04.235Z,99.99
2018-08-04T16:34:04.238Z,96.83
2018-08-04T16:35:04.198Z,92.93
2018-08-04T16:36:04.206Z,92.06
2018-08-04T16:37:04.231Z,97.31
2018-08-04T16:38:04.184Z,99.99
2018-08-04T16:39:04.286Z,99.85
2018-08-04T16:40:04.104Z,90.79
2018-08-04T16:41:04.062Z,95.37
2018-08-04T16:42:04.206Z,97.31
2018-08-04T16:43:04.008Z,94.73
2018-08-04T16:44:03.991Z,98.29
2018-08-04T16:45:03.962Z,99.95
2018-08-04T16:46:03.954Z,99.99
2018-08-04T16:47:03.948Z,99.99
2018-08-04T16:48:04.017Z,99.85
2018-08-04T16:49:03.915Z,99.56
2018-08-04T16:50:03.878Z,99.99
2018-08-04T16:51:03.831Z,99.99
2018-08-04T16:52:03.793Z,99.99
2018-08-04T16:53:04.073Z,99.99
2018-08-04T16:54:04.011Z,99.99
2018-08-04T16:55:03.891Z,99.99
2018-08-04T16:56:03.783Z,99.99
2018-08-04T16:57:03.731Z,98.29
2018-08-04T16:58:03.678Z,99.02
2018-08-04T16:59:04.049Z,99.80
2018-08-04T17:00:03.647Z,96.88
2018-08-04T17:01:03.598Z,97.46
2018-08-04T17:02:03.587Z,96.59
2018-08-04T17:03:03.772Z,97.61
2018-08-04T17:04:03.574Z,98.78
2018-08-04T17:05:03.515Z,99.99
2018-08-04T17:06:03.610Z,99.99
2018-08-04T17:07:03.486Z,99.99
2018-08-04T17:08:03.428Z,99.95
2018-08-04T17:09:03.516Z,99.99
2018-08-04T17:10:03.485Z,98.78
2018-08-04T17:11:03.349Z,99.99
2018-08-04T17:12:03.346Z,97.51
2018-08-04T17:13:03.449Z,99.99
2018-08-04T17:14:03.308Z,99.99
2018-08-04T17:15:03.339Z,99.99
2018-08-04T17:16:03.489Z,99.99
2018-08-04T17:17:03.233Z,97.85
2018-08-04T17:18:03.331Z,99.99
2018-08-04T17:19:03.201Z,99.99
2018-08-04T17:20:03.205Z,99.99
2018-08-04T17:21:03.305Z,99.99
2018-08-04T17:22:03.148Z,99.99
2018-08-04T17:23:03.120Z,99.99
2018-08-04T17:24:03.068Z,99.99
2018-08-04T17:25:03.040Z,99.99
2018-08-04T17:26:03.190Z,99.99
2018-08-04T17:27:03.032Z,99.99
2018-08-04T17:28:02.969Z,99.99
2018-08-04T17:29:02.988Z,99.99
2018-08-04T17:30:03.070Z,99.99
2018-08-04T17:31:02.919Z,99.99
2018-08-04T17:32:03.004Z,97.95
2018-08-04T17:33:02.890Z,99.41
2018-08-04T17:34:02.881Z,99.99
2018-08-04T17:35:02.807Z,98.05
2018-08-04T17:36:02.833Z,99.99
2018-08-04T17:37:02.882Z,99.66
2018-08-04T17:38:02.840Z,99.99
2018-08-04T17:39:02.828Z,99.99
2018-08-04T17:40:02.706Z,99.99
2018-08-04T17:41:02.698Z,98.73
2018-08-04T17:42:02.712Z,98.19
2018-08-04T17:43:02.633Z,94.10
2018-08-04T17:44:02.645Z,95.95
2018-08-04T17:45:02.678Z,95.23
2018-08-04T17:46:02.584Z,99.99
2018-08-04T17:47:02.803Z,96.98
2018-08-04T17:48:02.708Z,92.11
2018-08-04T17:49:02.515Z,99.02
2018-08-04T17:50:02.468Z,90.65
2018-08-04T17:51:02.487Z,96.39
2018-08-04T17:52:02.457Z,90.06
2018-08-04T17:53:02.522Z,87.53
2018-08-04T17:54:02.388Z,94.45
2018-08-04T17:55:02.336Z,93.57
2018-08-04T17:56:02.374Z,94.06
2018-08-04T17:57:02.424Z,92.01
2018-08-04T17:58:02.357Z,94.64
2018-08-04T17:59:02.288Z,90.84
2018-08-04T18:00:02.288Z,91.24
2018-08-04T18:01:02.232Z,91.42
2018-08-04T18:02:02.239Z,93.08
2018-08-04T18:03:02.394Z,95.90
2018-08-04T18:04:02.205Z,89.09
2018-08-04T18:05:02.138Z,89.48
2018-08-04T18:06:02.132Z,92.40
2018-08-04T18:07:02.105Z,90.99
2018-08-04T18:08:02.168Z,92.26
2018-08-04T18:09:02.161Z,92.36
2018-08-04T18:10:02.042Z,91.28
2018-08-04T18:11:01.989Z,87.15
2018-08-04T18:12:01.970Z,88.02
2018-08-04T18:13:01.939Z,92.21
2018-08-04T18:14:01.950Z,95.86
2018-08-04T18:15:02.081Z,89.34
2018-08-04T18:16:01.952Z,87.59
2018-08-04T18:17:01.871Z,86.52
2018-08-04T18:18:01.858Z,91.28
2018-08-04T18:19:01.884Z,88.66
2018-08-04T18:20:01.919Z,90.22
2018-08-04T18:21:01.836Z,89.34
2018-08-04T18:22:01.853Z,86.77
2018-08-04T18:23:01.722Z,87.49
2018-08-04T18:24:01.743Z,87.29
2018-08-04T18:25:01.778Z,92.07
2018-08-04T18:26:01.677Z,89.29
2018-08-04T18:27:01.705Z,84.47
2018-08-04T18:28:01.628Z,85.44
2018-08-04T18:29:01.589Z,85.83
2018-08-04T18:30:01.593Z,93.04
2018-08-04T18:31:01.669Z,87.59
2018-08-04T18:32:01.526Z,88.60
2018-08-04T18:33:01.618Z,87.34
2018-08-04T18:34:01.599Z,86.76
2018-08-04T18:35:01.431Z,88.60
2018-08-04T18:36:01.403Z,92.16
2018-08-04T18:37:01.706Z,88.66
2018-08-04T18:38:01.510Z,82.53
2018-08-04T18:39:01.387Z,84.08
2018-08-04T18:40:01.367Z,88.76
2018-08-04T18:41:01.437Z,85.35
2018-08-04T18:42:01.270Z,92.65
2018-08-04T18:43:01.337Z,87.88
2018-08-04T18:44:01.357Z,85.35
2018-08-04T18:45:01.295Z,89.04
2018-08-04T18:46:01.379Z,86.22
2018-08-04T18:47:01.250Z,77.37
2018-08-04T18:48:01.133Z,81.51
2018-08-04T18:49:01.224Z,84.05
2018-08-04T18:50:01.131Z,83.36
2018-08-04T18:51:01.095Z,85.11
2018-08-04T18:52:01.057Z,86.77
2018-08-04T18:53:01.077Z,81.32
2018-08-04T18:54:01.097Z,88.62
2018-08-04T18:55:00.980Z,89.00
2018-08-04T18:56:01.134Z,87.74
2018-08-04T18:57:00.940Z,81.71
2018-08-04T18:58:00.921Z,89.29
2018-08-04T18:59:00.961Z,84.43
2018-08-04T19:00:00.829Z,81.12
2018-08-04T19:01:00.914Z,90.56
2018-08-04T19:02:00.816Z,85.99
2018-08-04T19:03:00.802Z,82.92
2018-08-04T19:04:00.852Z,85.41
2018-08-04T19:05:00.742Z,87.93
2018-08-04T19:06:00.730Z,86.47
2018-08-04T19:07:00.709Z,94.55
2018-08-04T19:08:00.663Z,90.31
2018-08-04T19:09:00.716Z,85.83
2018-08-04T19:10:00.620Z,84.52
2018-08-04T19:11:00.567Z,90.36
2018-08-04T19:12:00.557Z,89.97
2018-08-04T19:13:00.547Z,98.93
2018-08-04T19:14:00.644Z,95.90
2018-08-04T19:15:00.470Z,99.80
2018-08-04T19:16:00.480Z,92.88
2018-08-04T19:17:00.438Z,94.73
2018-08-04T19:18:00.400Z,94.53
2018-08-04T19:19:00.395Z,95.31
2018-08-04T19:20:00.455Z,92.83
2018-08-04T19:21:00.372Z,98.14
2018-08-04T19:22:00.348Z,91.71
2018-08-04T19:23:00.310Z,94.15
2018-08-04T19:24:00.280Z,93.27
2018-08-04T19:25:00.267Z,96.93
2018-08-04T19:26:00.301Z,96.00
2018-08-04T19:27:00.210Z,98.83
2018-08-04T19:28:00.328Z,95.76
2018-08-04T19:29:00.178Z,95.86
2018-08-04T19:30:00.139Z,98.78
2018-08-04T19:31:00.118Z,95.17
2018-08-04T19:32:00.193Z,95.37
2018-08-04T19:33:00.055Z,96.34
2018-08-04T19:34:00.065Z,99.99
2018-08-04T19:35:00.036Z,98.93
2018-08-04T19:36:00.000Z,95.86
2018-08-04T19:37:00.102Z,93.08
2018-08-04T19:37:59.968Z,96.78
2018-08-04T19:38:59.949Z,99.99
2018-08-04T19:39:59.931Z,99.99
2018-08-04T19:40:59.873Z,99.99
2018-08-04T19:41:59.974Z,99.99
2018-08-04T19:42:59.815Z,96.78
2018-08-04T19:43:59.808Z,93.27
2018-08-04T19:44:59.786Z,99.41
2018-08-04T19:45:59.765Z,96.97
2018-08-04T19:46:59.827Z,99.99
2018-08-04T19:47:59.751Z,99.99
2018-08-04T19:48:59.702Z,99.99
2018-08-04T19:49:59.707Z,99.99
2018-08-04T19:50:59.691Z,99.99
2018-08-04T19:51:59.727Z,99.99
2018-08-04T19:52:59.603Z,99.99
2018-08-04T19:53:59.606Z,99.99
2018-08-04T19:54:59.576Z,99.99
2018-08-04T19:55:59.572Z,99.99
2018-08-04T19:56:59.552Z,99.99
2018-08-04T19:57:59.622Z,99.99
2018-08-04T19:58:59.497Z,99.51
2018-08-04T19:59:59.461Z,98.83
2018-08-04T20:00:59.452Z,99.99
2018-08-04T20:01:59.430Z,99.99
2018-08-04T20:02:59.396Z,99.99
2018-08-04T20:03:59.430Z,99.99
2018-08-04T20:04:59.326Z,99.99
2018-08-04T20:05:59.301Z,99.99
2018-08-04T20:06:59.314Z,99.99
2018-08-04T20:07:59.295Z,99.99
2018-08-04T20:08:59.247Z,99.99
2018-08-04T20:09:59.328Z,99.99
2018-08-04T20:10:59.209Z,99.99
2018-08-04T20:11:59.161Z,99.99
2018-08-04T20:12:59.166Z,99.99
2018-08-04T20:13:59.151Z,99.99
2018-08-04T20:14:59.199Z,99.99
2018-08-04T20:15:59.096Z,99.99
2018-08-04T20:16:59.056Z,99.99
2018-08-04T20:17:59.033Z,99.99
2018-08-04T20:18:59.024Z,99.99
2018-08-04T20:19:59.111Z,99.99
2018-08-04T20:20:58.987Z,99.99
2018-08-04T20:21:58.969Z,99.99
2018-08-04T20:22:58.959Z,99.99
2018-08-04T20:23:58.905Z,99.99
2018-08-04T20:24:58.975Z,99.99
2018-08-04T20:25:58.870Z,99.99
2018-08-04T20:26:58.832Z,99.99
2018-08-04T20:27:58.812Z,99.99
2018-08-04T20:28:58.820Z,99.99
2018-08-04T20:29:58.866Z,99.99
2018-08-04T20:30:58.780Z,99.99
2018-08-04T20:31:58.755Z,99.99
2018-08-04T20:32:58.719Z,99.99
2018-08-04T20:33:58.674Z,99.99
2018-08-04T20:34:58.760Z,99.99
2018-08-04T20:35:58.672Z,99.99
2018-08-04T20:36:58.626Z,99.99
2018-08-04T20:37:58.585Z,99.99
2018-08-04T20:38:58.601Z,99.99
2018-08-04T20:39:58.654Z,99.99
2018-08-04T20:40:58.523Z,99.99
2018-08-04T20:41:58.495Z,99.99
2018-08-04T20:42:58.476Z,99.99
2018-08-04T20:43:58.486Z,99.99
2018-08-04T20:44:58.438Z,99.99
2018-08-04T20:45:58.509Z,99.99
2018-08-04T20:46:58.399Z,99.99
2018-08-04T20:47:58.387Z,99.99
2018-08-04T20:48:58.378Z,99.99
2018-08-04T20:49:58.317Z,99.99
2018-08-04T20:50:58.308Z,99.99
2018-08-04T20:51:58.408Z,99.99
2018-08-04T20:52:58.327Z,99.99
2018-08-04T20:53:58.232Z,99.99
2018-08-04T20:54:58.208Z,99.99
2018-08-04T20:55:58.226Z,99.99
2018-08-04T20:56:58.263Z,99.99
2018-08-04T20:57:58.132Z,99.99
2018-08-04T20:58:58.124Z,99.99
2018-08-04T20:59:58.102Z,99.99
2018-08-04T21:00:58.095Z,99.99
2018-08-04T21:01:58.198Z,99.99
2018-08-04T21:02:58.064Z,99.99
2018-08-04T21:03:58.019Z,99.99
2018-08-04T21:04:58.017Z,99.99
2018-08-04T21:05:57.981Z,99.99
2018-08-04T21:06:58.038Z,99.99
2018-08-04T21:07:57.923Z,99.51
2018-08-04T21:08:57.915Z,99.99
2018-08-04T21:09:57.900Z,99.99
2018-08-04T21:10:57.901Z,97.61
2018-08-04T21:11:57.922Z,99.99
2018-08-04T21:12:57.859Z,99.99
2018-08-04T21:13:57.819Z,99.99
2018-08-04T21:14:57.775Z,99.99
2018-08-04T21:15:57.781Z,99.99
2018-08-04T21:16:57.875Z,99.99
2018-08-04T21:17:57.714Z,99.99
2018-08-04T21:18:57.762Z,99.27
2018-08-04T21:19:57.668Z,99.99
2018-08-04T21:20:57.675Z,99.46
2018-08-04T21:21:57.660Z,99.56
2018-08-04T21:22:57.612Z,98.00
2018-08-04T21:23:57.595Z,96.25
2018-08-04T21:24:57.558Z,99.07
2018-08-04T21:25:57.553Z,97.13
2018-08-04T21:26:57.543Z,99.71
2018-08-04T21:27:57.597Z,99.99
2018-08-04T21:28:57.466Z,98.63
2018-08-04T21:29:57.474Z,98.93
2018-08-04T21:30:57.427Z,99.51
2018-08-04T21:31:57.428Z,96.10
2018-08-04T21:32:57.396Z,96.20
2018-08-04T21:33:57.384Z,97.17
2018-08-04T21:34:57.375Z,94.54
2018-08-04T21:35:57.377Z,92.84
2018-08-04T21:36:57.271Z,94.40
2018-08-04T21:37:57.290Z,91.58
2018-08-04T21:38:57.369Z,90.70
2018-08-04T21:39:57.235Z,88.76
2018-08-04T21:40:57.226Z,89.43
2018-08-04T21:41:57.192Z,88.76
2018-08-04T21:42:57.177Z,86.13
2018-08-04T21:43:57.210Z,92.11
2018-08-04T21:44:57.127Z,89.10
2018-08-04T21:45:57.079Z,85.99
2018-08-04T21:46:57.068Z,89.29
2018-08-04T21:47:57.034Z,88.03
2018-08-04T21:48:57.061Z,88.62
2018-08-04T21:49:57.019Z,87.35
2018-08-04T21:50:56.971Z,90.75
2018-08-04T21:51:56.925Z,88.62
2018-08-04T21:52:56.912Z,85.31
2018-08-04T21:53:57.003Z,86.67
2018-08-04T21:54:56.881Z,85.60
2018-08-04T21:55:56.905Z,85.79
2018-08-04T21:56:56.823Z,86.57
2018-08-04T21:57:56.810Z,86.28
2018-08-04T21:58:56.904Z,84.33
2018-08-04T21:59:56.737Z,82.87
2018-08-04T22:00:56.738Z,83.51
2018-08-04T22:01:56.875Z,83.22
2018-08-04T22:02:56.683Z,83.22
2018-08-04T22:03:56.787Z,80.60
2018-08-04T22:04:56.634Z,84.30
2018-08-04T22:05:56.625Z,82.15
2018-08-04T22:06:56.578Z,78.27
2018-08-04T22:07:56.604Z,78.17
2018-08-04T22:08:56.573Z,77.87
2018-08-04T22:09:56.642Z,78.07
2018-08-04T22:10:56.496Z,78.17
2018-08-04T22:11:56.498Z,74.86
2018-08-04T22:12:56.515Z,78.13
2018-08-04T22:13:56.448Z,73.95
2018-08-04T22:14:56.422Z,73.69
2018-08-04T22:15:56.497Z,72.82
2018-08-04T22:16:56.385Z,74.34
2018-08-04T22:17:56.375Z,80.07
2018-08-04T22:18:56.319Z,77.39
2018-08-04T22:19:56.286Z,78.13
2018-08-04T22:20:56.259Z,75.21
2018-08-04T22:21:56.361Z,75.89
2018-08-04T22:22:56.244Z,75.31
2018-08-04T22:23:56.222Z,76.38
2018-08-04T22:24:56.213Z,73.95
2018-08-04T22:25:56.124Z,75.60
2018-08-04T22:26:56.156Z,74.92
2018-08-04T22:27:56.114Z,74.54
2018-08-04T22:28:56.059Z,73.66
2018-08-04T22:29:56.086Z,75.41
2018-08-04T22:30:56.132Z,71.91
2018-08-04T22:31:56.038Z,71.52
2018-08-04T22:32:55.996Z,70.75
2018-08-04T22:33:55.960Z,71.13
2018-08-04T22:34:55.909Z,71.23
2018-08-04T22:35:55.905Z,69.67
2018-08-04T22:36:55.942Z,71.33
2018-08-04T22:37:55.861Z,68.32
2018-08-04T22:38:55.822Z,68.90
2018-08-04T22:39:55.876Z,64.98
2018-08-04T22:40:55.772Z,65.17
2018-08-04T22:41:55.833Z,62.94
2018-08-04T22:42:55.750Z,62.65
2018-08-04T22:43:55.751Z,61.87
2018-08-04T22:44:55.678Z,62.65
2018-08-04T22:45:55.682Z,62.35
2018-08-04T22:46:55.634Z,64.30
2018-08-04T22:47:55.693Z,62.65
2018-08-04T22:48:55.585Z,58.37
2018-08-04T22:49:55.592Z,57.21
2018-08-04T22:50:55.541Z,58.57
2018-08-04T22:51:55.563Z,57.69
2018-08-04T22:52:55.488Z,58.86
2018-08-04T22:53:55.603Z,56.14
2018-08-04T22:54:55.465Z,54.39
2018-08-04T22:55:55.474Z,56.92
2018-08-04T22:56:55.426Z,55.17
2018-08-04T22:57:55.362Z,53.91
2018-08-04T22:58:55.370Z,52.25
2018-08-04T22:59:55.404Z,51.09
2018-08-04T23:00:55.331Z,52.94
2018-08-04T23:01:55.373Z,53.81
2018-08-04T23:02:55.284Z,53.32
2018-08-04T23:03:55.251Z,52.64
2018-08-04T23:04:55.313Z,52.06
2018-08-04T23:05:55.203Z,53.22
2018-08-04T23:06:55.151Z,53.42
2018-08-04T23:07:55.114Z,51.57
2018-08-04T23:08:55.112Z,52.94
2018-08-04T23:09:55.255Z,52.94
2018-08-04T23:10:55.082Z,53.22
2018-08-04T23:11:55.062Z,53.22
2018-08-04T23:12:55.000Z,52.62
2018-08-04T23:13:54.976Z,50.99
2018-08-04T23:14:55.076Z,50.09
2018-08-04T23:15:54.959Z,49.15
2018-08-04T23:16:54.915Z,48.27
2018-08-04T23:17:56.769Z,50.87
2018-08-04T23:18:55.066Z,49.41
2018-08-04T23:19:55.137Z,48.66
2018-08-04T23:20:54.823Z,51.84
2018-08-04T23:21:54.846Z,48.64
2018-08-04T23:22:55.071Z,47.08
2018-08-04T23:23:55.290Z,46.23
2018-08-04T23:24:57.305Z,46.11
2018-08-04T23:25:54.705Z,46.21
2018-08-04T23:26:54.668Z,47.57
2018-08-04T23:27:54.760Z,45.92
2018-08-04T23:28:54.623Z,46.11
2018-08-04T23:29:54.612Z,45.14
2018-08-04T23:30:54.604Z,46.11
2018-08-04T23:31:54.545Z,45.24
2018-08-04T23:32:54.529Z,42.43
2018-08-04T23:33:54.509Z,42.23
2018-08-04T23:34:54.491Z,43.30
2018-08-04T23:35:54.421Z,43.59
2018-08-04T23:36:54.677Z,42.91
2018-08-04T23:37:54.943Z,41.45
2018-08-04T23:38:54.868Z,41.45
2018-08-04T23:39:54.336Z,42.13
2018-08-04T23:40:54.551Z,42.30
2018-08-04T23:41:54.318Z,41.74
2018-08-04T23:42:54.359Z,40.46
2018-08-04T23:43:54.396Z,40.85
2018-08-04T23:44:54.329Z,40.19
2018-08-04T23:45:54.816Z,38.25
2018-08-04T23:46:54.401Z,37.94
2018-08-04T23:47:54.891Z,36.77
2018-08-04T23:48:54.149Z,37.16
2018-08-04T23:49:54.117Z,35.61
2018-08-04T23:50:54.122Z,35.03
2018-08-04T23:51:54.078Z,33.86
2018-08-04T23:52:54.043Z,34.35
2018-08-04T23:53:54.685Z,34.83
2018-08-04T23:54:54.035Z,35.13
2018-08-04T23:55:53.951Z,35.71
2018-08-04T23:56:53.926Z,33.18
2018-08-04T23:57:53.986Z,31.15
2018-08-04T23:58:53.874Z,30.08
2018-08-04T23:59:54.046Z,30.76
